Terminal Aerodrome Forecast
Issued by NWS Newport/Morehead City, NC

Home | Current Version | Previous Version | Graphics & Text | Print | Product List | Glossary On
Versions: 1 2 3 4 5 6 7 8 9 10 11 12 13 14 15 16 17 18 19
000
FTUS42 KMHX 252340
TAFEWN
TAF
KEWN 252340Z 2600/2624 17004KT P6SM SCT040 OVC100
     FM260800 00000KT 2SM BR BKN007 OVC025
     FM261200 03005KT P6SM SCT007 BKN025
     FM261600 12007KT P6SM VCSH SCT025 BKN040=

USA.gov is the U.S. government's official web portal to all federal, state and local government web resources and services.